Heron Island, Australia
Current Conditions -  °F | °C
As of 10:00 PM on Friday 28 Nov 2014 (Local Time) from YGLA Reporting Station
Broken Clouds Broken Clouds  
Wind Chill: 75°   Ceiling: 4900
Heat Index: 75°   Visibility: 6mi
Dew Point: 68°   Wind: 13mph
Humidity: 78%   Direction: 100°E
Pressure: 30"   Gusts: NA
Location:  23.43°S, 151.92°E
Report Text: YGLA 281200Z AUTO 10011KT 9999 // SCT029 SCT042 BKN049 24/20 Q1016
Loading
Personal Weather Stations






























Interactive Weather Map New forecast layout! Learn more

10-Day Weather Forecast

Advertisements
Track Severe Weather on mobile